РПИ Туркменбаши

Руководитель РПИ

Evgeny Vygornitsky*

Инструкторы РПИ
Evgeny Vygornitsky (Supervisor)
Vitaliy Alekseyev (Instructor)
Входит в состав
ЗЦ Центральная Азия

Диспетчеры РПИ

Диспетчер Рейтинг Допуски *

Аэропорты РПИ

ICAO Город Название Погода
UTAK Туркменбаши Туркменбаши UTAK 161900Z 06008KT 9999 BKN046 OVC100 03/M00 Q1016 R16R/19//60 NOSIG